createdAt,value
2016-11-24T00:00:36.361Z,99.99
2016-11-24T00:01:35.556Z,99.99
2016-11-24T00:02:35.613Z,99.99
2016-11-24T00:03:35.668Z,99.99
2016-11-24T00:04:35.293Z,99.99
2016-11-24T00:05:35.671Z,99.99
2016-11-24T00:06:35.366Z,99.99
2016-11-24T00:07:35.846Z,99.99
2016-11-24T00:08:35.869Z,99.99
2016-11-24T00:09:35.849Z,99.99
2016-11-24T00:10:35.316Z,99.99
2016-11-24T00:11:35.558Z,99.99
2016-11-24T00:12:35.722Z,99.99
2016-11-24T00:13:35.411Z,99.99
2016-11-24T00:14:36.653Z,99.99
2016-11-24T00:15:35.856Z,99.99
2016-11-24T00:16:35.664Z,99.99
2016-11-24T00:17:35.402Z,99.99
2016-11-24T00:18:35.957Z,99.99
2016-11-24T00:19:36.776Z,99.99
2016-11-24T00:20:37.129Z,99.99
2016-11-24T00:21:35.985Z,99.99
2016-11-24T00:22:35.950Z,99.99
2016-11-24T00:23:35.612Z,99.99
2016-11-24T00:24:36.340Z,99.99
2016-11-24T00:25:35.673Z,99.99
2016-11-24T00:26:35.623Z,99.99
2016-11-24T00:27:35.678Z,99.99
2016-11-24T00:28:35.786Z,99.99
2016-11-24T00:29:35.954Z,99.99
2016-11-24T00:30:36.251Z,99.99
2016-11-24T00:31:36.120Z,99.99
2016-11-24T00:32:36.229Z,99.99
2016-11-24T00:33:36.067Z,99.99
2016-11-24T00:34:36.253Z,99.99
2016-11-24T00:35:36.025Z,99.99
2016-11-24T00:36:35.696Z,99.99
2016-11-24T00:37:35.873Z,99.99
2016-11-24T00:38:36.003Z,99.99
2016-11-24T00:39:36.170Z,99.99
2016-11-24T00:40:36.184Z,99.99
2016-11-24T00:41:36.388Z,99.99
2016-11-24T00:42:36.711Z,99.99
2016-11-24T00:43:35.907Z,99.99
2016-11-24T00:44:35.845Z,99.99
2016-11-24T00:45:35.832Z,99.99
2016-11-24T00:46:36.481Z,99.99
2016-11-24T00:47:35.925Z,99.99
2016-11-24T00:48:35.896Z,99.99
2016-11-24T00:49:36.850Z,99.99
2016-11-24T00:50:36.432Z,99.99
2016-11-24T00:51:36.476Z,99.99
2016-11-24T00:52:36.092Z,99.99
2016-11-24T00:53:36.273Z,99.99
2016-11-24T00:54:36.635Z,99.99
2016-11-24T00:55:36.807Z,99.99
2016-11-24T00:56:36.462Z,99.99
2016-11-24T00:57:36.562Z,99.99
2016-11-24T00:58:36.327Z,99.99
2016-11-24T00:59:36.885Z,99.99
2016-11-24T01:00:35.887Z,99.99
2016-11-24T01:01:36.253Z,99.99
2016-11-24T01:02:37.084Z,99.99
2016-11-24T01:03:36.762Z,99.99
2016-11-24T01:04:37.144Z,99.99
2016-11-24T01:05:37.189Z,99.99
2016-11-24T01:06:36.850Z,99.99
2016-11-24T01:07:36.511Z,99.99
2016-11-24T01:08:36.430Z,99.99
2016-11-24T01:09:36.363Z,99.99
2016-11-24T01:10:36.514Z,99.99
2016-11-24T01:11:36.507Z,99.99
2016-11-24T01:12:37.097Z,99.99
2016-11-24T01:13:37.067Z,99.99
2016-11-24T01:14:36.638Z,99.99
2016-11-24T01:15:36.311Z,99.99
2016-11-24T01:16:36.707Z,99.99
2016-11-24T01:17:36.920Z,99.99
2016-11-24T01:18:36.678Z,99.99
2016-11-24T01:19:37.360Z,99.99
2016-11-24T01:20:37.193Z,99.99
2016-11-24T01:21:37.340Z,99.99
2016-11-24T01:22:36.393Z,99.99
2016-11-24T01:23:37.012Z,99.99
2016-11-24T01:24:36.645Z,99.99
2016-11-24T01:25:37.172Z,99.99
2016-11-24T01:26:37.123Z,99.99
2016-11-24T01:27:37.062Z,99.99
2016-11-24T01:28:36.962Z,99.99
2016-11-24T01:29:36.987Z,99.99
2016-11-24T01:30:37.649Z,99.99
2016-11-24T01:31:36.646Z,99.99
2016-11-24T01:32:36.885Z,99.99
2016-11-24T01:33:36.497Z,99.99
2016-11-24T01:34:36.980Z,99.99
2016-11-24T01:35:37.098Z,99.99
2016-11-24T01:36:36.940Z,99.99
2016-11-24T01:37:37.177Z,99.99
2016-11-24T01:38:36.716Z,99.99
2016-11-24T01:39:36.686Z,99.99
2016-11-24T01:40:36.902Z,99.99
2016-11-24T01:41:37.517Z,99.99
2016-11-24T01:42:36.840Z,99.99
2016-11-24T01:43:37.034Z,99.99
2016-11-24T01:44:36.964Z,99.99
2016-11-24T01:45:37.127Z,99.99
2016-11-24T01:46:36.841Z,99.99
2016-11-24T01:47:37.197Z,99.99
2016-11-24T01:48:36.809Z,99.99
2016-11-24T01:49:36.875Z,99.99
2016-11-24T01:50:36.773Z,99.99
2016-11-24T01:51:37.186Z,99.99
2016-11-24T01:52:37.375Z,99.99
2016-11-24T01:53:37.347Z,99.99
2016-11-24T01:54:37.355Z,99.99
2016-11-24T01:55:37.303Z,99.99
2016-11-24T01:56:37.383Z,99.99
2016-11-24T01:57:37.323Z,99.99
2016-11-24T01:58:36.773Z,99.99
2016-11-24T01:59:37.274Z,99.99
2016-11-24T02:00:37.317Z,99.99
2016-11-24T02:01:37.325Z,99.99
2016-11-24T02:02:38.444Z,99.99
2016-11-24T02:03:37.346Z,99.99
2016-11-24T02:04:37.648Z,99.99
2016-11-24T02:05:37.797Z,99.99
2016-11-24T02:06:37.782Z,99.99
2016-11-24T02:07:37.161Z,99.99
2016-11-24T02:08:37.218Z,99.99
2016-11-24T02:09:37.240Z,99.99
2016-11-24T02:10:37.671Z,99.99
2016-11-24T02:11:37.652Z,99.99
2016-11-24T02:12:37.255Z,99.99
2016-11-24T02:13:38.039Z,99.99
2016-11-24T02:14:37.627Z,99.99
2016-11-24T02:15:37.233Z,99.99
2016-11-24T02:16:37.757Z,99.99
2016-11-24T02:17:37.560Z,99.99
2016-11-24T02:18:37.327Z,99.99
2016-11-24T02:19:37.479Z,99.99
2016-11-24T02:20:37.662Z,99.99
2016-11-24T02:21:37.682Z,99.99
2016-11-24T02:22:38.003Z,99.99
2016-11-24T02:23:37.638Z,99.99
2016-11-24T02:24:37.458Z,99.99
2016-11-24T02:25:38.065Z,99.99
2016-11-24T02:26:37.914Z,99.99
2016-11-24T02:27:37.843Z,99.99
2016-11-24T02:28:37.642Z,99.99
2016-11-24T02:29:38.049Z,99.99
2016-11-24T02:30:38.223Z,99.99
2016-11-24T02:31:38.346Z,99.99
2016-11-24T02:32:37.474Z,99.99
2016-11-24T02:33:37.844Z,99.99
2016-11-24T02:34:37.964Z,99.99
2016-11-24T02:35:37.720Z,99.99
2016-11-24T02:36:37.949Z,99.99
2016-11-24T02:37:37.738Z,99.99
2016-11-24T02:38:37.744Z,99.99
2016-11-24T02:39:37.948Z,99.99
2016-11-24T02:40:38.005Z,99.99
2016-11-24T02:41:37.909Z,99.99
2016-11-24T02:42:37.854Z,99.99
2016-11-24T02:43:37.752Z,99.99
2016-11-24T02:44:37.945Z,99.99
2016-11-24T02:45:38.254Z,99.99
2016-11-24T02:46:38.083Z,99.99
2016-11-24T02:47:37.736Z,99.99
2016-11-24T02:48:38.158Z,99.99
2016-11-24T02:49:38.383Z,99.99
2016-11-24T02:50:38.611Z,99.99
2016-11-24T02:51:37.951Z,99.99
2016-11-24T02:52:38.251Z,99.99
2016-11-24T02:53:38.222Z,99.99
2016-11-24T02:54:38.584Z,99.99
2016-11-24T02:55:37.867Z,99.99
2016-11-24T02:56:37.765Z,99.99
2016-11-24T02:57:38.126Z,99.99
2016-11-24T02:58:38.208Z,99.99
2016-11-24T02:59:38.167Z,99.99
2016-11-24T03:00:38.119Z,99.99
2016-11-24T03:01:37.841Z,99.99
2016-11-24T03:02:38.197Z,99.99
2016-11-24T03:03:38.927Z,99.99
2016-11-24T03:04:38.228Z,99.99
2016-11-24T03:05:38.219Z,99.99
2016-11-24T03:06:38.543Z,99.99
2016-11-24T03:07:38.668Z,99.99
2016-11-24T03:08:38.283Z,99.99
2016-11-24T03:09:38.585Z,99.99
2016-11-24T03:10:38.688Z,99.99
2016-11-24T03:11:38.420Z,99.99
2016-11-24T03:12:38.372Z,99.99
2016-11-24T03:13:38.140Z,99.99
2016-11-24T03:14:38.459Z,99.99
2016-11-24T03:15:38.596Z,99.99
2016-11-24T03:16:38.842Z,99.99
2016-11-24T03:17:39.379Z,99.99
2016-11-24T03:18:38.149Z,99.99
2016-11-24T03:19:38.307Z,99.99
2016-11-24T03:20:38.426Z,99.99
2016-11-24T03:21:38.292Z,99.99
2016-11-24T03:22:38.562Z,99.99
2016-11-24T03:23:38.566Z,99.99
2016-11-24T03:24:39.033Z,99.99
2016-11-24T03:25:38.508Z,99.99
2016-11-24T03:26:38.417Z,99.99
2016-11-24T03:27:38.470Z,99.99
2016-11-24T03:28:38.597Z,99.99
2016-11-24T03:29:38.895Z,99.99
2016-11-24T03:30:38.422Z,99.99
2016-11-24T03:31:38.612Z,99.99
2016-11-24T03:32:38.336Z,99.99
2016-11-24T03:33:38.943Z,99.99
2016-11-24T03:34:38.299Z,99.99
2016-11-24T03:35:38.942Z,99.99
2016-11-24T03:36:39.524Z,99.99
2016-11-24T03:37:38.885Z,99.99
2016-11-24T03:38:38.929Z,99.99
2016-11-24T03:39:39.259Z,99.99
2016-11-24T03:40:38.918Z,99.99
2016-11-24T03:41:38.637Z,99.99
2016-11-24T03:42:38.579Z,99.99
2016-11-24T03:43:38.639Z,99.99
2016-11-24T03:44:38.668Z,99.99
2016-11-24T03:45:38.711Z,99.99
2016-11-24T03:46:39.611Z,99.99
2016-11-24T03:47:39.275Z,99.99
2016-11-24T03:48:39.120Z,99.99
2016-11-24T03:49:39.189Z,99.99
2016-11-24T03:50:39.163Z,99.99
2016-11-24T03:51:39.579Z,99.99
2016-11-24T03:52:39.263Z,99.99
2016-11-24T03:53:39.246Z,99.99
2016-11-24T03:54:39.056Z,99.99
2016-11-24T03:55:39.190Z,99.99
2016-11-24T03:56:39.007Z,99.99
2016-11-24T03:57:39.668Z,99.99
2016-11-24T03:58:39.117Z,99.99
2016-11-24T03:59:39.106Z,99.99
2016-11-24T04:00:39.163Z,99.99
2016-11-24T04:01:39.299Z,99.99
2016-11-24T04:02:39.567Z,99.99
2016-11-24T04:03:39.423Z,99.99
2016-11-24T04:04:39.490Z,99.99
2016-11-24T04:05:39.912Z,99.99
2016-11-24T04:06:39.147Z,99.99
2016-11-24T04:07:39.676Z,99.99
2016-11-24T04:08:39.135Z,99.99
2016-11-24T04:09:39.313Z,99.99
2016-11-24T04:10:39.213Z,99.99
2016-11-24T04:11:39.404Z,99.99
2016-11-24T04:12:39.586Z,99.99
2016-11-24T04:13:39.443Z,99.99
2016-11-24T04:14:39.127Z,99.99
2016-11-24T04:15:39.336Z,99.99
2016-11-24T04:16:40.219Z,99.99
2016-11-24T04:17:39.307Z,99.99
2016-11-24T04:18:39.457Z,99.99
2016-11-24T04:19:39.307Z,99.99
2016-11-24T04:20:39.458Z,99.99
2016-11-24T04:21:39.251Z,99.99
2016-11-24T04:22:39.335Z,99.99
2016-11-24T04:23:39.463Z,99.99
2016-11-24T04:24:39.456Z,99.99
2016-11-24T04:25:39.478Z,99.99
2016-11-24T04:26:39.426Z,99.99
2016-11-24T04:27:39.396Z,99.99
2016-11-24T04:28:39.750Z,99.99
2016-11-24T04:29:39.981Z,99.99
2016-11-24T04:30:39.484Z,99.99
2016-11-24T04:31:39.661Z,99.99
2016-11-24T04:32:40.346Z,99.99
2016-11-24T04:33:39.514Z,99.99
2016-11-24T04:34:39.468Z,99.99
2016-11-24T04:35:39.686Z,99.99
2016-11-24T04:36:39.682Z,99.99
2016-11-24T04:37:39.649Z,99.99
2016-11-24T04:38:39.587Z,99.99
2016-11-24T04:39:39.437Z,99.99
2016-11-24T04:40:40.376Z,99.99
2016-11-24T04:41:40.304Z,99.99
2016-11-24T04:42:40.332Z,99.99
2016-11-24T04:43:39.594Z,99.99
2016-11-24T04:44:39.827Z,99.99
2016-11-24T04:45:40.458Z,99.99
2016-11-24T04:46:40.076Z,99.99
2016-11-24T04:47:39.881Z,99.99
2016-11-24T04:48:40.035Z,99.99
2016-11-24T04:49:40.946Z,99.99
2016-11-24T04:50:40.124Z,99.99
2016-11-24T04:51:40.288Z,99.99
2016-11-24T04:52:40.267Z,99.99
2016-11-24T04:53:40.255Z,99.99
2016-11-24T04:54:40.068Z,99.99
2016-11-24T04:55:40.003Z,99.99
2016-11-24T04:56:40.125Z,99.99
2016-11-24T04:57:39.884Z,99.99
2016-11-24T04:58:40.146Z,99.99
2016-11-24T04:59:40.151Z,99.99
2016-11-24T05:00:40.345Z,99.99
2016-11-24T05:01:40.609Z,99.99
2016-11-24T05:02:39.966Z,99.99
2016-11-24T05:03:40.006Z,99.99
2016-11-24T05:04:40.376Z,99.99
2016-11-24T05:05:40.163Z,99.99
2016-11-24T05:06:40.383Z,99.99
2016-11-24T05:07:40.180Z,99.99
2016-11-24T05:08:39.951Z,99.99
2016-11-24T05:09:40.061Z,99.99
2016-11-24T05:10:39.650Z,99.99
2016-11-24T05:11:40.020Z,99.99
2016-11-24T05:12:40.038Z,99.99
2016-11-24T05:13:40.905Z,99.99
2016-11-24T05:14:41.084Z,99.99
2016-11-24T05:15:40.882Z,99.99
2016-11-24T05:16:40.830Z,99.99
2016-11-24T05:17:40.371Z,99.99
2016-11-24T05:18:40.270Z,99.99
2016-11-24T05:19:40.988Z,99.99
2016-11-24T05:20:40.787Z,99.99
2016-11-24T05:21:40.983Z,99.99
2016-11-24T05:22:40.432Z,99.99
2016-11-24T05:23:41.701Z,99.99
2016-11-24T05:24:40.920Z,99.99
2016-11-24T05:25:41.858Z,99.99
2016-11-24T05:26:40.553Z,99.99
2016-11-24T05:27:41.742Z,99.99
2016-11-24T05:28:40.644Z,99.99
2016-11-24T05:29:40.662Z,99.99
2016-11-24T05:30:40.888Z,99.99
2016-11-24T05:31:40.535Z,99.99
2016-11-24T05:32:40.595Z,99.99
2016-11-24T05:33:40.648Z,99.99
2016-11-24T05:34:40.521Z,99.99
2016-11-24T05:35:40.876Z,99.99
2016-11-24T05:36:40.806Z,99.99
2016-11-24T05:37:40.746Z,99.99
2016-11-24T05:38:40.633Z,99.99
2016-11-24T05:39:40.821Z,99.99
2016-11-24T05:40:41.200Z,99.99
2016-11-24T05:41:40.704Z,99.99
2016-11-24T05:42:40.959Z,99.99
2016-11-24T05:43:40.904Z,99.99
2016-11-24T05:44:41.155Z,99.99
2016-11-24T05:45:40.843Z,99.99
2016-11-24T05:46:41.440Z,99.99
2016-11-24T05:47:41.009Z,99.99
2016-11-24T05:48:41.336Z,99.99
2016-11-24T05:49:40.914Z,99.99
2016-11-24T05:50:40.703Z,99.99
2016-11-24T05:51:42.492Z,99.99
2016-11-24T05:52:41.185Z,99.99
2016-11-24T05:53:41.613Z,99.99
2016-11-24T05:54:41.521Z,99.99
2016-11-24T05:55:41.580Z,99.99
2016-11-24T05:56:41.433Z,99.99
2016-11-24T05:57:41.890Z,99.99
2016-11-24T05:58:41.389Z,99.99
2016-11-24T05:59:42.292Z,99.99
2016-11-24T06:00:41.548Z,99.99
2016-11-24T06:01:41.547Z,99.99
2016-11-24T06:02:41.498Z,99.99
2016-11-24T06:03:41.073Z,99.99
2016-11-24T06:04:41.348Z,99.99
2016-11-24T06:05:42.080Z,99.99
2016-11-24T06:06:41.759Z,99.99
2016-11-24T06:07:41.295Z,99.99
2016-11-24T06:08:42.481Z,99.99
2016-11-24T06:09:41.307Z,99.99
2016-11-24T06:10:41.332Z,99.99
2016-11-24T06:11:41.712Z,99.99
2016-11-24T06:12:42.053Z,99.99
2016-11-24T06:13:41.697Z,99.99
2016-11-24T06:14:42.009Z,99.99
2016-11-24T06:15:42.801Z,99.99
2016-11-24T06:16:41.607Z,99.99
2016-11-24T06:17:41.830Z,99.99
2016-11-24T06:18:42.746Z,99.99
2016-11-24T06:19:41.553Z,99.99
2016-11-24T06:20:41.371Z,99.99
2016-11-24T06:21:42.323Z,99.99
2016-11-24T06:22:41.605Z,99.99
2016-11-24T06:23:41.780Z,99.99
2016-11-24T06:24:41.442Z,99.99
2016-11-24T06:25:41.744Z,99.99
2016-11-24T06:26:41.841Z,99.99
2016-11-24T06:27:41.727Z,99.99
2016-11-24T06:28:41.594Z,99.99
2016-11-24T06:29:41.879Z,99.99
2016-11-24T06:30:43.237Z,99.99
2016-11-24T06:31:41.689Z,99.99
2016-11-24T06:32:41.948Z,99.99
2016-11-24T06:33:41.627Z,99.99
2016-11-24T06:34:41.829Z,99.99
2016-11-24T06:35:41.551Z,99.99
2016-11-24T06:36:42.445Z,99.99
2016-11-24T06:37:41.754Z,99.99
2016-11-24T06:38:41.806Z,99.99
2016-11-24T06:39:42.205Z,99.99
2016-11-24T06:40:42.084Z,99.99
2016-11-24T06:41:42.522Z,99.99
2016-11-24T06:42:41.754Z,99.99
2016-11-24T06:43:41.720Z,99.99
2016-11-24T06:44:43.097Z,99.99
2016-11-24T06:45:43.163Z,99.99
2016-11-24T06:46:42.280Z,99.99
2016-11-24T06:47:41.937Z,99.99
2016-11-24T06:48:42.015Z,99.99
2016-11-24T06:49:42.094Z,99.99
2016-11-24T06:50:42.036Z,99.99
2016-11-24T06:51:42.062Z,99.99
2016-11-24T06:52:41.873Z,99.99
2016-11-24T06:53:42.292Z,99.99
2016-11-24T06:54:42.010Z,99.99
2016-11-24T06:55:42.139Z,99.99
2016-11-24T06:56:42.023Z,99.99
2016-11-24T06:57:42.242Z,99.99
2016-11-24T06:58:43.460Z,99.99
2016-11-24T06:59:42.963Z,99.99
2016-11-24T07:00:41.755Z,99.99
2016-11-24T07:01:41.922Z,99.99
2016-11-24T07:02:42.474Z,99.99
2016-11-24T07:03:41.451Z,99.99
2016-11-24T07:04:41.459Z,99.99
2016-11-24T07:05:41.818Z,99.99
2016-11-24T07:06:41.567Z,99.99
2016-11-24T07:07:41.570Z,99.99
2016-11-24T07:08:41.540Z,99.99
2016-11-24T07:09:41.575Z,99.99
2016-11-24T07:10:41.571Z,99.99
2016-11-24T07:11:41.627Z,99.99
2016-11-24T07:12:41.626Z,99.99
2016-11-24T07:13:41.936Z,99.99
2016-11-24T07:14:41.974Z,99.99
2016-11-24T07:15:42.777Z,99.99
2016-11-24T07:16:42.793Z,99.99
2016-11-24T07:17:42.107Z,99.99
2016-11-24T07:18:42.617Z,99.99
2016-11-24T07:19:42.435Z,99.99
2016-11-24T07:20:42.880Z,99.99
2016-11-24T07:21:42.164Z,99.99
2016-11-24T07:22:42.725Z,99.99
2016-11-24T07:23:42.514Z,99.99
2016-11-24T07:24:42.349Z,99.99
2016-11-24T07:25:42.101Z,99.99
2016-11-24T07:26:42.614Z,99.99
2016-11-24T07:27:42.272Z,99.99
2016-11-24T07:28:42.918Z,99.99
2016-11-24T07:29:42.565Z,99.99
2016-11-24T07:30:42.562Z,99.99
2016-11-24T07:31:42.185Z,99.99
2016-11-24T07:32:43.033Z,99.99
2016-11-24T07:33:42.332Z,99.99
2016-11-24T07:34:42.540Z,99.99
2016-11-24T07:35:42.637Z,99.99
2016-11-24T07:36:42.790Z,99.99
2016-11-24T07:37:42.614Z,99.99
2016-11-24T07:38:42.415Z,99.99
2016-11-24T07:39:43.237Z,99.99
2016-11-24T07:40:42.534Z,99.99
2016-11-24T07:41:42.774Z,99.99
2016-11-24T07:42:43.083Z,99.99
2016-11-24T07:43:42.515Z,99.99
2016-11-24T07:44:42.706Z,99.99
2016-11-24T07:45:42.288Z,99.99
2016-11-24T07:46:42.688Z,99.99
2016-11-24T07:47:43.288Z,99.99
2016-11-24T07:48:42.629Z,99.99
2016-11-24T07:49:42.816Z,99.99
2016-11-24T07:50:42.431Z,99.99
2016-11-24T07:51:43.693Z,99.99
2016-11-24T07:52:43.347Z,99.99
2016-11-24T07:53:42.644Z,99.99
2016-11-24T07:54:43.581Z,99.99
2016-11-24T07:55:42.611Z,99.99
2016-11-24T07:56:43.225Z,99.99
2016-11-24T07:57:42.750Z,99.99
2016-11-24T07:58:43.231Z,99.99
2016-11-24T07:59:43.325Z,99.99
2016-11-24T08:00:43.423Z,99.99
2016-11-24T08:01:43.406Z,99.99
2016-11-24T08:02:43.334Z,99.99
2016-11-24T08:03:43.050Z,99.99
2016-11-24T08:04:43.429Z,99.99
2016-11-24T08:05:42.891Z,99.99
2016-11-24T08:06:43.299Z,99.99
2016-11-24T08:07:43.335Z,99.99
2016-11-24T08:08:42.978Z,99.99
2016-11-24T08:09:43.056Z,99.99
2016-11-24T08:10:43.132Z,99.99
2016-11-24T08:11:43.333Z,99.99
2016-11-24T08:12:43.586Z,99.99
2016-11-24T08:13:43.277Z,99.99
2016-11-24T08:14:43.217Z,99.99
2016-11-24T08:15:43.049Z,99.99
2016-11-24T08:16:43.465Z,99.99
2016-11-24T08:17:43.230Z,99.99
2016-11-24T08:18:42.916Z,99.99
2016-11-24T08:19:43.743Z,99.99
2016-11-24T08:20:43.580Z,99.99
2016-11-24T08:21:43.285Z,99.99
2016-11-24T08:22:43.756Z,99.99
2016-11-24T08:23:43.079Z,99.99
2016-11-24T08:24:43.668Z,99.99
2016-11-24T08:25:43.255Z,99.99
2016-11-24T08:26:43.659Z,99.99
2016-11-24T08:27:43.355Z,99.99
2016-11-24T08:28:43.537Z,99.99
2016-11-24T08:29:43.648Z,99.99
2016-11-24T08:30:44.014Z,99.99
2016-11-24T08:31:43.670Z,99.99
2016-11-24T08:32:43.325Z,99.99
2016-11-24T08:33:43.542Z,99.99
2016-11-24T08:34:43.980Z,99.99
2016-11-24T08:35:43.254Z,99.99
2016-11-24T08:36:43.940Z,99.99
2016-11-24T08:37:43.967Z,99.99
2016-11-24T08:38:43.512Z,99.99
2016-11-24T08:39:43.780Z,99.99
2016-11-24T08:40:43.374Z,99.99
2016-11-24T08:41:43.970Z,99.99
2016-11-24T08:42:44.050Z,99.99
2016-11-24T08:43:43.614Z,99.99
2016-11-24T08:44:43.410Z,99.99
2016-11-24T08:45:44.024Z,99.99
2016-11-24T08:46:43.595Z,99.99
2016-11-24T08:47:43.843Z,99.99
2016-11-24T08:48:44.133Z,99.99
2016-11-24T08:49:43.899Z,99.99
2016-11-24T08:50:43.866Z,99.99
2016-11-24T08:51:43.627Z,99.99
2016-11-24T08:52:44.728Z,99.99
2016-11-24T08:53:43.919Z,99.99
2016-11-24T08:54:43.524Z,99.99
2016-11-24T08:55:44.301Z,99.99
2016-11-24T08:56:43.844Z,99.99
2016-11-24T08:57:44.756Z,99.99
2016-11-24T08:58:43.725Z,99.99
2016-11-24T08:59:44.315Z,99.99
2016-11-24T09:00:43.893Z,99.99
2016-11-24T09:01:43.928Z,99.99
2016-11-24T09:02:44.315Z,99.99
2016-11-24T09:03:44.203Z,99.99
2016-11-24T09:04:43.964Z,99.99
2016-11-24T09:05:44.285Z,99.99
2016-11-24T09:06:44.319Z,99.99
2016-11-24T09:07:44.585Z,99.99
2016-11-24T09:08:44.745Z,99.99
2016-11-24T09:09:44.162Z,99.99
2016-11-24T09:10:43.795Z,99.99
2016-11-24T09:11:44.630Z,99.99
2016-11-24T09:12:44.834Z,99.99
2016-11-24T09:13:43.918Z,99.99
2016-11-24T09:14:44.285Z,99.99
2016-11-24T09:15:44.166Z,99.99
2016-11-24T09:16:44.557Z,99.99
2016-11-24T09:17:44.541Z,99.99
2016-11-24T09:18:44.257Z,99.99
2016-11-24T09:19:44.816Z,99.99
2016-11-24T09:20:43.844Z,99.99
2016-11-24T09:21:44.117Z,99.99
2016-11-24T09:22:44.328Z,99.99
2016-11-24T09:23:44.053Z,99.99
2016-11-24T09:24:44.119Z,99.99
2016-11-24T09:25:44.568Z,99.99
2016-11-24T09:26:44.243Z,99.99
2016-11-24T09:27:44.460Z,99.99
2016-11-24T09:28:44.486Z,99.99
2016-11-24T09:29:44.519Z,99.99
2016-11-24T09:30:44.525Z,99.99
2016-11-24T09:31:44.942Z,99.99
2016-11-24T09:32:44.570Z,99.99
2016-11-24T09:33:44.733Z,99.99
2016-11-24T09:34:44.255Z,99.99
2016-11-24T09:35:44.698Z,99.99
2016-11-24T09:36:44.793Z,99.99
2016-11-24T09:37:44.713Z,99.99
2016-11-24T09:38:44.665Z,99.99
2016-11-24T09:39:44.987Z,99.99
2016-11-24T09:40:44.577Z,99.99
2016-11-24T09:41:44.484Z,99.99
2016-11-24T09:42:45.265Z,99.99
2016-11-24T09:43:44.975Z,99.99
2016-11-24T09:44:44.886Z,99.99
2016-11-24T09:45:44.676Z,99.99
2016-11-24T09:46:44.892Z,99.99
2016-11-24T09:47:45.097Z,99.99
2016-11-24T09:48:44.981Z,99.99
2016-11-24T09:49:44.829Z,99.99
2016-11-24T09:50:44.788Z,99.99
2016-11-24T09:51:44.624Z,99.99
2016-11-24T09:52:44.982Z,99.99
2016-11-24T09:53:44.757Z,99.99
2016-11-24T09:54:44.669Z,99.99
2016-11-24T09:55:44.805Z,99.99
2016-11-24T09:56:45.203Z,99.99
2016-11-24T09:57:45.255Z,99.99
2016-11-24T09:58:44.798Z,99.99
2016-11-24T09:59:45.395Z,99.99
2016-11-24T10:00:44.870Z,99.99
2016-11-24T10:01:46.176Z,99.99
2016-11-24T10:02:45.588Z,99.99
2016-11-24T10:03:44.694Z,99.99
2016-11-24T10:04:44.855Z,99.99
2016-11-24T10:05:44.933Z,99.99
2016-11-24T10:06:44.819Z,99.99
2016-11-24T10:07:45.088Z,99.99
2016-11-24T10:08:45.045Z,99.99
2016-11-24T10:09:44.700Z,99.99
2016-11-24T10:10:45.131Z,99.99
2016-11-24T10:11:45.193Z,99.99
2016-11-24T10:12:45.336Z,99.99
2016-11-24T10:13:45.640Z,99.99
2016-11-24T10:14:44.867Z,99.99
2016-11-24T10:15:45.203Z,99.99
2016-11-24T10:16:45.445Z,99.99
2016-11-24T10:17:45.266Z,99.99
2016-11-24T10:18:45.308Z,99.99
2016-11-24T10:19:45.006Z,99.99
2016-11-24T10:20:45.599Z,99.99
2016-11-24T10:21:45.753Z,99.99
2016-11-24T10:22:44.956Z,99.99
2016-11-24T10:23:45.291Z,99.99
2016-11-24T10:24:45.920Z,99.99
2016-11-24T10:25:45.754Z,99.99
2016-11-24T10:26:45.653Z,99.99
2016-11-24T10:27:46.133Z,99.99
2016-11-24T10:28:45.251Z,99.99
2016-11-24T10:29:46.173Z,99.99
2016-11-24T10:30:45.687Z,99.99
2016-11-24T10:31:45.908Z,99.99
2016-11-24T10:32:45.105Z,99.99
2016-11-24T10:33:45.981Z,99.99
2016-11-24T10:34:45.854Z,99.99
2016-11-24T10:35:45.678Z,99.99
2016-11-24T10:36:45.320Z,99.99
2016-11-24T10:37:45.914Z,99.99
2016-11-24T10:38:46.116Z,99.99
2016-11-24T10:39:45.772Z,99.99
2016-11-24T10:40:45.463Z,99.99
2016-11-24T10:41:45.917Z,99.99
2016-11-24T10:42:45.604Z,99.99
2016-11-24T10:43:45.731Z,99.99
2016-11-24T10:44:46.124Z,99.99
2016-11-24T10:45:46.348Z,99.99
2016-11-24T10:46:45.788Z,99.99
2016-11-24T10:47:45.547Z,99.99
2016-11-24T10:48:45.620Z,99.99
2016-11-24T10:49:46.325Z,99.99
2016-11-24T10:50:46.230Z,99.99
2016-11-24T10:51:45.711Z,99.99
2016-11-24T10:52:45.835Z,99.99
2016-11-24T10:53:46.244Z,99.99
2016-11-24T10:54:47.005Z,99.99
2016-11-24T10:55:46.056Z,99.99
2016-11-24T10:56:46.196Z,99.99
2016-11-24T10:57:46.109Z,99.99
2016-11-24T10:58:46.199Z,99.99
2016-11-24T10:59:46.019Z,99.99
2016-11-24T11:00:46.631Z,99.99
2016-11-24T11:01:46.197Z,99.99
2016-11-24T11:02:45.809Z,99.99
2016-11-24T11:03:45.818Z,99.99
2016-11-24T11:04:46.426Z,99.99
2016-11-24T11:05:46.582Z,99.99
2016-11-24T11:06:46.350Z,99.99
2016-11-24T11:07:46.108Z,99.99
2016-11-24T11:08:45.899Z,99.99
2016-11-24T11:09:46.281Z,99.99
2016-11-24T11:10:46.210Z,99.99
2016-11-24T11:11:46.386Z,99.99
2016-11-24T11:12:46.584Z,99.99
2016-11-24T11:13:46.317Z,99.99
2016-11-24T11:14:46.073Z,99.99
2016-11-24T11:15:46.522Z,99.99
2016-11-24T11:16:46.132Z,99.99
2016-11-24T11:17:46.167Z,99.99
2016-11-24T11:18:45.957Z,99.99
2016-11-24T11:19:46.157Z,99.99
2016-11-24T11:20:46.729Z,99.99
2016-11-24T11:21:46.454Z,99.99
2016-11-24T11:22:46.391Z,99.99
2016-11-24T11:23:46.301Z,99.99
2016-11-24T11:24:46.088Z,99.99
2016-11-24T11:25:46.493Z,99.84
2016-11-24T11:26:46.690Z,99.84
2016-11-24T11:27:46.687Z,99.93
2016-11-24T11:28:46.225Z,99.99
2016-11-24T11:29:47.206Z,99.99
2016-11-24T11:30:46.674Z,99.99
2016-11-24T11:31:46.613Z,99.99
2016-11-24T11:32:46.502Z,99.99
2016-11-24T11:33:46.957Z,99.27
2016-11-24T11:34:46.406Z,99.99
2016-11-24T11:35:46.274Z,99.46
2016-11-24T11:36:46.350Z,99.74
2016-11-24T11:37:46.624Z,99.27
2016-11-24T11:38:47.325Z,99.65
2016-11-24T11:39:46.370Z,99.46
2016-11-24T11:40:46.235Z,99.55
2016-11-24T11:41:46.704Z,99.46
2016-11-24T11:42:47.115Z,99.17
2016-11-24T11:43:46.638Z,98.69
2016-11-24T11:44:47.113Z,99.27
2016-11-24T11:45:46.837Z,99.36
2016-11-24T11:46:46.579Z,98.41
2016-11-24T11:47:46.689Z,98.32
2016-11-24T11:48:47.918Z,99.93
2016-11-24T11:49:46.677Z,99.74
2016-11-24T11:50:46.832Z,99.99
2016-11-24T11:51:47.006Z,99.27
2016-11-24T11:52:47.365Z,98.5
2016-11-24T11:53:47.293Z,98.13
2016-11-24T11:54:46.902Z,98.41
2016-11-24T11:55:47.100Z,98.69
2016-11-24T11:56:47.078Z,97.65
2016-11-24T11:57:46.897Z,98.13
2016-11-24T11:58:47.372Z,98.41
2016-11-24T11:59:47.413Z,97.74
2016-11-24T12:00:47.138Z,97.27
2016-11-24T12:01:46.827Z,96.41
2016-11-24T12:02:46.867Z,96.51
2016-11-24T12:03:47.077Z,96.6
2016-11-24T12:04:47.195Z,96.84
2016-11-24T12:05:46.922Z,97.31
2016-11-24T12:06:46.756Z,98.18
2016-11-24T12:07:47.235Z,98.6
2016-11-24T12:08:47.368Z,98.27
2016-11-24T12:09:47.267Z,95.7
2016-11-24T12:10:47.638Z,97.36
2016-11-24T12:11:47.355Z,97.31
2016-11-24T12:12:47.214Z,97.03
2016-11-24T12:13:47.056Z,96.84
2016-11-24T12:14:47.006Z,96.36
2016-11-24T12:15:47.491Z,96.94
2016-11-24T12:16:47.541Z,95.79
2016-11-24T12:17:47.807Z,95.12
2016-11-24T12:18:47.191Z,95.32
2016-11-24T12:19:47.593Z,95.03
2016-11-24T12:20:47.154Z,95.03
2016-11-24T12:21:47.495Z,95.03
2016-11-24T12:22:47.232Z,95.03
2016-11-24T12:23:47.388Z,95.6
2016-11-24T12:24:47.495Z,95.32
2016-11-24T12:25:47.392Z,95.22
2016-11-24T12:26:47.481Z,94.27
2016-11-24T12:27:47.430Z,94.08
2016-11-24T12:28:47.601Z,92.69
2016-11-24T12:29:47.291Z,92.89
2016-11-24T12:30:47.581Z,92.32
2016-11-24T12:31:48.788Z,92.03
2016-11-24T12:32:47.277Z,93.08
2016-11-24T12:33:47.529Z,92.79
2016-11-24T12:34:47.581Z,91.84
2016-11-24T12:35:48.136Z,91.74
2016-11-24T12:36:47.477Z,90.64
2016-11-24T12:37:47.414Z,91.03
2016-11-24T12:38:47.814Z,89.98
2016-11-24T12:39:47.314Z,88.93
2016-11-24T12:40:47.542Z,88.02
2016-11-24T12:41:47.882Z,86.78
2016-11-24T12:42:47.650Z,86.69
2016-11-24T12:43:47.648Z,86.49
2016-11-24T12:44:48.228Z,86.4
2016-11-24T12:45:48.411Z,86.25
2016-11-24T12:46:48.100Z,85.87
2016-11-24T12:47:47.491Z,85.68
2016-11-24T12:48:47.845Z,86.73
2016-11-24T12:49:48.521Z,85.01
2016-11-24T12:50:48.253Z,84.72
2016-11-24T12:51:48.216Z,83.67
2016-11-24T12:52:48.048Z,82.48